createdAt,value
2023-04-10T00:01:05.782Z,71.00
2023-04-10T00:03:34.239Z,70.71
2023-04-10T00:06:02.572Z,70.23
2023-04-10T00:08:30.776Z,70.69
2023-04-10T00:10:59.056Z,71.72
2023-04-10T00:13:27.526Z,71.71
2023-04-10T00:15:55.946Z,72.65
2023-04-10T00:18:25.844Z,73.54
2023-04-10T00:20:54.008Z,73.88
2023-04-10T00:23:22.103Z,74.10
2023-04-10T00:25:50.395Z,74.20
2023-04-10T00:28:18.928Z,74.62
2023-04-10T00:30:47.057Z,74.22
2023-04-10T00:33:15.300Z,74.58
2023-04-10T00:35:45.214Z,74.74
2023-04-10T00:38:13.437Z,75.19
2023-04-10T00:40:41.944Z,75.53
2023-04-10T00:43:10.008Z,75.55
2023-04-10T00:45:38.273Z,75.83
2023-04-10T00:48:07.144Z,75.43
2023-04-10T00:50:35.675Z,75.69
2023-04-10T00:53:05.189Z,76.00
2023-04-10T00:55:33.310Z,75.95
2023-04-10T00:58:01.622Z,76.36
2023-04-10T01:00:29.883Z,76.86
2023-04-10T01:02:58.386Z,77.11
2023-04-10T01:05:28.989Z,77.20
2023-04-10T01:08:10.798Z,78.08
2023-04-10T01:10:48.410Z,78.66
2023-04-10T01:13:23.546Z,79.30
2023-04-10T01:15:59.778Z,79.70
2023-04-10T01:18:33.149Z,80.47
2023-04-10T01:21:03.956Z,80.89
2023-04-10T01:23:54.697Z,81.33
2023-04-10T01:26:37.978Z,81.92
2023-04-10T01:29:09.795Z,82.31
2023-04-10T01:31:43.131Z,81.59
2023-04-10T01:34:17.022Z,82.08
2023-04-10T01:36:51.326Z,81.93
2023-04-10T01:39:22.036Z,81.91
2023-04-10T01:41:53.017Z,82.26
2023-04-10T01:44:26.165Z,82.68
2023-04-10T01:46:55.542Z,82.96
2023-04-10T01:49:25.525Z,83.40
2023-04-10T01:51:54.768Z,83.52
2023-04-10T01:54:23.634Z,83.99
2023-04-10T01:56:51.739Z,84.07
2023-04-10T01:59:20.601Z,84.05
2023-04-10T02:01:50.248Z,83.88
2023-04-10T02:04:18.680Z,84.71
2023-04-10T02:06:52.904Z,85.72
2023-04-10T02:09:27.447Z,86.26
2023-04-10T02:12:00.404Z,86.71
2023-04-10T02:14:29.964Z,87.31
2023-04-10T02:17:00.688Z,87.51
2023-04-10T02:19:30.045Z,87.89
2023-04-10T02:21:59.981Z,87.94
2023-04-10T02:24:28.807Z,88.67
2023-04-10T02:26:57.964Z,88.68
2023-04-10T02:29:26.142Z,89.67
2023-04-10T02:31:54.322Z,89.46
2023-04-10T02:34:23.988Z,89.96
2023-04-10T02:36:52.443Z,90.36
2023-04-10T02:39:20.678Z,90.62
2023-04-10T02:41:48.780Z,91.19
2023-04-10T02:44:16.871Z,91.72
2023-04-10T02:46:45.058Z,91.32
2023-04-10T02:49:13.857Z,90.98
2023-04-10T02:51:43.355Z,90.87
2023-04-10T02:54:11.476Z,91.48
2023-04-10T02:56:39.594Z,91.67
2023-04-10T02:59:08.188Z,91.78
2023-04-10T03:01:36.408Z,91.99
2023-04-10T03:04:05.090Z,91.50
2023-04-10T03:06:33.296Z,91.00
2023-04-10T03:09:02.814Z,90.40
2023-04-10T03:11:31.456Z,89.85
2023-04-10T03:13:59.519Z,88.52
2023-04-10T03:16:27.858Z,87.76
2023-04-10T03:18:56.146Z,87.83
2023-04-10T03:21:25.379Z,88.05
2023-04-10T03:23:53.825Z,87.60
2023-04-10T03:26:24.194Z,87.30
2023-04-10T03:28:52.367Z,87.39
2023-04-10T03:31:20.760Z,87.22
2023-04-10T03:33:49.122Z,86.25
2023-04-10T03:36:17.437Z,86.21
2023-04-10T03:38:45.540Z,86.05
2023-04-10T03:41:13.795Z,85.86
2023-04-10T03:43:43.383Z,85.95
2023-04-10T03:46:11.560Z,86.18
2023-04-10T03:48:39.694Z,86.02
2023-04-10T03:51:08.545Z,85.91
2023-04-10T03:53:36.906Z,85.25
2023-04-10T03:56:05.393Z,85.41
2023-04-10T03:58:33.537Z,84.27
2023-04-10T04:01:03.308Z,84.79
2023-04-10T04:03:31.714Z,85.50
2023-04-10T04:06:00.019Z,85.40
2023-04-10T04:08:28.083Z,84.97
2023-04-10T04:10:58.760Z,83.71
2023-04-10T04:13:27.325Z,83.68
2023-04-10T04:15:55.884Z,83.97
2023-04-10T04:18:25.328Z,83.52
2023-04-10T04:20:53.516Z,83.96
2023-04-10T04:23:21.701Z,84.65
2023-04-10T04:25:52.894Z,85.33
2023-04-10T04:28:20.992Z,85.67
2023-04-10T04:30:49.187Z,84.36
2023-04-10T04:33:17.423Z,84.00
2023-04-10T04:35:46.975Z,83.31
2023-04-10T04:38:16.865Z,83.58
2023-04-10T04:40:44.994Z,83.23
2023-04-10T04:43:13.235Z,83.23
2023-04-10T04:45:41.355Z,82.94
2023-04-10T04:48:09.545Z,82.49
2023-04-10T04:50:37.730Z,82.93
2023-04-10T04:53:08.088Z,82.72
2023-04-10T04:55:36.977Z,83.20
2023-04-10T04:58:05.152Z,83.01
2023-04-10T05:00:33.330Z,83.31
2023-04-10T05:03:02.066Z,81.80
2023-04-10T05:05:31.791Z,80.43
2023-04-10T05:08:00.592Z,80.00
2023-04-10T05:10:30.217Z,80.04
2023-04-10T05:12:58.285Z,79.67
2023-04-10T05:15:26.456Z,79.40
2023-04-10T05:17:54.888Z,79.34
2023-04-10T05:20:23.060Z,79.13
2023-04-10T05:22:53.091Z,79.40
2023-04-10T05:25:21.332Z,78.67
2023-04-10T05:27:51.051Z,76.56
2023-04-10T05:30:19.354Z,76.01
2023-04-10T05:32:47.501Z,76.00
2023-04-10T05:35:15.671Z,76.15
2023-04-10T05:37:43.794Z,76.39
2023-04-10T05:40:12.293Z,75.70
2023-04-10T05:42:40.469Z,75.07
2023-04-10T05:45:10.752Z,74.24
2023-04-10T05:47:38.883Z,74.09
2023-04-10T05:50:07.825Z,73.13
2023-04-10T05:52:36.281Z,72.80
2023-04-10T05:55:04.698Z,73.41
2023-04-10T05:57:33.434Z,72.79
2023-04-10T06:00:01.851Z,72.62
2023-04-10T06:02:32.427Z,72.17
2023-04-10T06:05:01.052Z,70.73
2023-04-10T06:07:29.222Z,69.05
2023-04-10T06:09:57.437Z,69.50
2023-04-10T06:12:25.935Z,67.64
2023-04-10T06:14:54.619Z,66.59
2023-04-10T06:17:24.328Z,65.36
2023-04-10T06:19:53.952Z,64.56
2023-04-10T06:22:22.720Z,63.19
2023-04-10T06:24:50.778Z,62.70
2023-04-10T06:27:18.990Z,62.80
2023-04-10T06:29:47.156Z,61.22
2023-04-10T06:32:15.162Z,60.51
2023-04-10T06:34:43.361Z,60.56
2023-04-10T06:37:12.742Z,59.11
2023-04-10T06:39:41.009Z,57.76
2023-04-10T06:42:09.293Z,57.27
2023-04-10T06:44:37.485Z,58.00
2023-04-10T06:47:07.045Z,56.16
2023-04-10T06:49:35.149Z,56.79
2023-04-10T06:52:03.284Z,54.01
2023-04-10T06:54:32.873Z,54.29
2023-04-10T06:57:01.306Z,54.76
2023-04-10T06:59:29.384Z,52.70
2023-04-10T07:01:57.457Z,53.82
2023-04-10T07:04:25.653Z,53.55
2023-04-10T07:06:53.987Z,53.26
2023-04-10T07:09:22.598Z,51.89
2023-04-10T07:11:52.284Z,51.93
2023-04-10T07:14:20.625Z,50.09
2023-04-10T07:16:50.322Z,49.89
2023-04-10T07:19:18.497Z,50.58
2023-04-10T07:21:50.217Z,49.58
2023-04-10T07:24:18.890Z,50.56
2023-04-10T07:26:47.789Z,50.10
2023-04-10T07:29:17.380Z,49.49
2023-04-10T07:31:46.081Z,48.95
2023-04-10T07:34:14.260Z,48.91
2023-04-10T07:36:43.161Z,49.86
2023-04-10T07:39:12.650Z,48.99
2023-04-10T07:41:40.982Z,47.31
2023-04-10T07:44:09.113Z,47.01
2023-04-10T07:46:39.464Z,46.45
2023-04-10T07:49:08.793Z,47.16
2023-04-10T07:51:37.380Z,47.01
2023-04-10T07:54:06.285Z,46.12
2023-04-10T07:56:34.666Z,46.89
2023-04-10T07:59:02.909Z,46.68
2023-04-10T08:01:31.220Z,46.26
2023-04-10T08:04:02.914Z,46.85
2023-04-10T08:06:34.094Z,45.71
2023-04-10T08:09:02.741Z,45.13
2023-04-10T08:11:32.036Z,44.08
2023-04-10T08:14:02.808Z,46.37
2023-04-10T08:16:32.364Z,45.63
2023-04-10T08:19:02.720Z,45.66
2023-04-10T08:21:32.460Z,46.13
2023-04-10T08:24:02.644Z,46.81
2023-04-10T08:26:30.976Z,46.32
2023-04-10T08:29:00.947Z,45.92
2023-04-10T08:31:30.167Z,45.25
2023-04-10T08:33:59.305Z,45.76
2023-04-10T08:36:29.152Z,43.40
2023-04-10T08:38:57.430Z,43.65
2023-04-10T08:41:25.771Z,43.96
2023-04-10T08:43:54.603Z,43.26
2023-04-10T08:46:24.730Z,41.92
2023-04-10T08:49:05.518Z,44.12
2023-04-10T08:51:40.571Z,44.06
2023-04-10T08:54:12.106Z,44.36
2023-04-10T08:56:42.895Z,43.56
2023-04-10T08:59:11.108Z,43.57
2023-04-10T09:01:41.883Z,44.11
2023-04-10T09:04:13.288Z,44.67
2023-04-10T09:06:42.849Z,45.77
2023-04-10T09:09:11.190Z,47.27
2023-04-10T09:12:04.403Z,47.89
2023-04-10T09:14:34.294Z,45.14
2023-04-10T09:17:19.354Z,45.99
2023-04-10T09:19:49.202Z,44.83
2023-04-10T09:22:19.066Z,45.34
2023-04-10T09:24:48.764Z,44.89
2023-04-10T09:27:32.726Z,46.05
2023-04-10T09:30:01.331Z,45.78
2023-04-10T09:32:40.505Z,45.32
2023-04-10T09:35:09.701Z,45.24
2023-04-10T09:37:40.867Z,45.44
2023-04-10T09:40:23.070Z,45.39
2023-04-10T09:42:51.380Z,45.55
2023-04-10T09:45:20.895Z,46.50
2023-04-10T09:48:03.577Z,46.77
2023-04-10T09:50:39.505Z,46.79
2023-04-10T09:53:10.640Z,45.99
2023-04-10T09:55:39.332Z,46.82
2023-04-10T09:58:08.223Z,48.63
2023-04-10T10:00:41.118Z,50.95
2023-04-10T10:03:11.884Z,51.49
2023-04-10T10:05:43.048Z,52.20
2023-04-10T10:08:16.829Z,52.11
2023-04-10T10:10:49.566Z,52.56
2023-04-10T10:13:26.275Z,52.04
2023-04-10T10:16:05.484Z,50.64
2023-04-10T10:18:40.734Z,50.27
2023-04-10T10:21:10.555Z,49.99
2023-04-10T10:23:44.152Z,49.99
2023-04-10T10:26:12.548Z,50.93
2023-04-10T10:28:42.941Z,51.79
2023-04-10T10:31:12.473Z,51.84
2023-04-10T10:33:42.389Z,52.21
2023-04-10T10:36:14.049Z,51.80
2023-04-10T10:38:53.064Z,53.19
2023-04-10T10:41:28.626Z,53.61
2023-04-10T10:44:03.463Z,54.99
2023-04-10T10:46:38.231Z,53.76
2023-04-10T10:49:06.561Z,53.16
2023-04-10T10:51:55.747Z,52.88
2023-04-10T10:54:33.757Z,50.95
2023-04-10T10:57:06.624Z,51.52
2023-04-10T10:59:55.695Z,51.18
2023-04-10T11:02:25.290Z,51.51
2023-04-10T11:04:54.064Z,50.54
2023-04-10T11:07:22.288Z,49.36
2023-04-10T11:09:57.366Z,49.08
2023-04-10T11:12:26.400Z,49.27
2023-04-10T11:15:02.084Z,48.66
2023-04-10T11:17:51.533Z,48.79
2023-04-10T11:20:22.662Z,49.09
2023-04-10T11:23:12.018Z,50.65
2023-04-10T11:25:53.073Z,50.71
2023-04-10T11:28:42.274Z,50.59
2023-04-10T11:31:24.247Z,50.79
2023-04-10T11:34:03.241Z,50.53
2023-04-10T11:36:32.274Z,50.60
2023-04-10T11:39:06.021Z,50.18
2023-04-10T11:41:39.112Z,50.22
2023-04-10T11:44:10.330Z,52.02
2023-04-10T11:46:39.516Z,51.36
2023-04-10T11:49:09.792Z,51.72
2023-04-10T11:51:38.840Z,52.76
2023-04-10T11:54:09.233Z,54.67
2023-04-10T11:56:39.751Z,55.81
2023-04-10T11:59:10.812Z,55.91
2023-04-10T12:01:43.071Z,55.42
2023-04-10T12:04:19.264Z,56.84
2023-04-10T12:06:48.695Z,56.39
2023-04-10T12:09:17.716Z,56.11
2023-04-10T12:11:55.042Z,55.15
2023-04-10T12:14:24.145Z,54.24
2023-04-10T12:16:53.045Z,53.93
2023-04-10T12:19:24.308Z,53.56
2023-04-10T12:21:52.527Z,53.43
2023-04-10T12:24:43.333Z,52.91
2023-04-10T12:27:18.676Z,53.34
2023-04-10T12:29:47.276Z,51.87
2023-04-10T12:32:15.757Z,51.02
2023-04-10T12:34:44.353Z,50.77
2023-04-10T12:37:12.534Z,50.74
2023-04-10T12:39:43.343Z,50.28
2023-04-10T12:42:19.118Z,50.14
2023-04-10T12:44:55.054Z,49.56
2023-04-10T12:47:23.998Z,50.13
2023-04-10T12:50:13.807Z,50.46
2023-04-10T12:52:43.818Z,49.96
2023-04-10T12:55:14.274Z,50.26
2023-04-10T12:57:46.130Z,50.02
2023-04-10T13:00:16.673Z,50.07
2023-04-10T13:02:46.009Z,49.43
2023-04-10T13:05:14.664Z,49.30
2023-04-10T13:07:42.967Z,49.30
2023-04-10T13:10:11.580Z,48.92
2023-04-10T13:12:40.892Z,49.40
2023-04-10T13:15:14.494Z,49.17
2023-04-10T13:17:44.629Z,49.07
2023-04-10T13:20:13.657Z,49.01
2023-04-10T13:22:41.777Z,48.79
2023-04-10T13:25:10.618Z,47.08
2023-04-10T13:27:38.762Z,46.91
2023-04-10T13:30:08.381Z,47.64
2023-04-10T13:32:38.100Z,47.64
2023-04-10T13:35:07.246Z,47.32
2023-04-10T13:37:35.356Z,45.98
2023-04-10T13:40:05.378Z,46.25
2023-04-10T13:42:34.133Z,46.38
2023-04-10T13:45:03.756Z,47.13
2023-04-10T13:47:32.145Z,47.80
2023-04-10T13:50:01.761Z,47.64
2023-04-10T13:52:29.840Z,48.18
2023-04-10T13:54:58.099Z,47.78
2023-04-10T13:57:26.339Z,48.31
2023-04-10T13:59:55.091Z,49.85
2023-04-10T14:02:23.294Z,50.05
2023-04-10T14:04:51.519Z,49.50
2023-04-10T14:07:22.456Z,49.09
2023-04-10T14:09:50.605Z,49.29
2023-04-10T14:12:19.280Z,51.00
2023-04-10T14:14:48.578Z,50.68
2023-04-10T14:17:16.901Z,50.43
2023-04-10T14:19:46.462Z,50.57
2023-04-10T14:22:14.721Z,52.15
2023-04-10T14:24:46.499Z,51.21
2023-04-10T14:27:15.260Z,50.67
2023-04-10T14:29:53.935Z,50.08
2023-04-10T14:32:23.211Z,51.59
2023-04-10T14:34:51.523Z,51.71
2023-04-10T14:37:20.024Z,50.89
2023-04-10T14:39:49.705Z,50.84
2023-04-10T14:42:17.946Z,51.15
2023-04-10T14:44:46.172Z,51.06
2023-04-10T14:47:14.368Z,51.19
2023-04-10T14:49:43.064Z,51.09
2023-04-10T14:52:13.808Z,50.66
2023-04-10T14:54:42.245Z,50.92
2023-04-10T14:57:12.511Z,51.11
2023-04-10T14:59:40.752Z,52.03
2023-04-10T15:02:08.950Z,51.90
2023-04-10T15:04:37.383Z,51.84
2023-04-10T15:07:05.513Z,51.69
2023-04-10T15:09:33.855Z,52.58
2023-04-10T15:12:02.220Z,52.63
2023-04-10T15:14:32.405Z,53.33
2023-04-10T15:17:00.586Z,53.73
2023-04-10T15:19:28.752Z,54.01
2023-04-10T15:21:56.901Z,55.63
2023-04-10T15:24:25.049Z,57.06
2023-04-10T15:26:54.041Z,58.50
2023-04-10T15:29:22.181Z,59.45
2023-04-10T15:31:52.439Z,59.35
2023-04-10T15:34:21.990Z,60.52
2023-04-10T15:36:50.064Z,60.93
2023-04-10T15:39:18.487Z,61.86
2023-04-10T15:41:48.345Z,62.95
2023-04-10T15:44:16.452Z,64.78
2023-04-10T15:46:47.222Z,66.81
2023-04-10T15:49:29.867Z,69.81
2023-04-10T15:52:06.601Z,72.12
2023-04-10T15:54:35.132Z,75.16
2023-04-10T15:57:03.495Z,76.63
2023-04-10T15:59:32.131Z,79.27
2023-04-10T16:02:00.690Z,78.36
2023-04-10T16:04:30.316Z,80.44
2023-04-10T16:06:58.424Z,79.89
2023-04-10T16:09:27.173Z,81.47
2023-04-10T16:11:56.323Z,80.83
2023-04-10T16:14:24.767Z,81.41
2023-04-10T16:16:53.099Z,80.89
2023-04-10T16:19:21.242Z,80.23
2023-04-10T16:21:51.258Z,79.60
2023-04-10T16:24:20.908Z,78.83
2023-04-10T16:26:49.042Z,79.01
2023-04-10T16:29:19.925Z,79.85
2023-04-10T16:31:48.236Z,80.88
2023-04-10T16:34:16.504Z,81.65
2023-04-10T16:36:44.731Z,81.99
2023-04-10T16:39:14.178Z,82.57
2023-04-10T16:41:42.322Z,83.11
2023-04-10T16:44:10.615Z,83.36
2023-04-10T16:46:38.979Z,83.77
2023-04-10T16:49:07.213Z,84.13
2023-04-10T16:51:35.365Z,83.83
2023-04-10T16:54:03.806Z,83.85
2023-04-10T16:56:34.128Z,83.74
2023-04-10T16:59:02.296Z,83.56
2023-04-10T17:01:31.021Z,83.92
2023-04-10T17:03:59.278Z,83.98
2023-04-10T17:06:27.506Z,84.11
2023-04-10T17:08:55.849Z,84.47
2023-04-10T17:11:24.176Z,84.41
2023-04-10T17:13:56.335Z,85.11
2023-04-10T17:16:24.471Z,84.63
2023-04-10T17:18:53.413Z,83.76
2023-04-10T17:21:21.780Z,84.55
2023-04-10T17:23:51.163Z,85.12
2023-04-10T17:26:19.368Z,86.69
2023-04-10T17:28:47.661Z,88.23
2023-04-10T17:31:18.604Z,89.94
2023-04-10T17:33:46.851Z,94.98
2023-04-10T17:36:18.102Z,100.00
2023-04-10T17:38:46.427Z,100.00
2023-04-10T17:41:17.184Z,100.00
2023-04-10T17:43:45.465Z,100.00
2023-04-10T17:46:18.621Z,100.00
2023-04-10T17:48:46.801Z,100.00
2023-04-10T17:51:14.962Z,100.00
2023-04-10T17:53:43.095Z,100.00
2023-04-10T17:56:18.733Z,100.00
2023-04-10T17:58:46.997Z,97.43
2023-04-10T18:01:24.449Z,95.21
2023-04-10T18:03:52.971Z,97.21
2023-04-10T18:06:21.157Z,97.91
2023-04-10T18:08:49.433Z,97.95
2023-04-10T18:11:18.008Z,98.74
2023-04-10T18:13:47.006Z,100.00
2023-04-10T18:16:15.529Z,100.00
2023-04-10T18:18:45.115Z,100.00
2023-04-10T18:21:13.651Z,100.00
2023-04-10T18:23:42.150Z,100.00
2023-04-10T18:26:10.291Z,100.00
2023-04-10T18:28:38.887Z,100.00
2023-04-10T18:31:08.556Z,100.00
2023-04-10T18:33:36.801Z,100.00
2023-04-10T18:36:07.010Z,100.00
2023-04-10T18:38:36.148Z,100.00
2023-04-10T18:41:04.763Z,100.00
2023-04-10T18:43:32.968Z,100.00
2023-04-10T18:46:01.648Z,100.00
2023-04-10T18:48:29.921Z,100.00
2023-04-10T18:50:58.066Z,100.00
2023-04-10T18:53:27.757Z,100.00
2023-04-10T18:55:56.359Z,100.00
2023-04-10T18:58:25.708Z,100.00
2023-04-10T19:00:55.268Z,100.00
2023-04-10T19:03:23.590Z,100.00
2023-04-10T19:05:51.887Z,100.00
2023-04-10T19:08:20.077Z,100.00
2023-04-10T19:10:49.765Z,100.00
2023-04-10T19:13:19.347Z,100.00
2023-04-10T19:15:48.347Z,100.00
2023-04-10T19:18:16.740Z,100.00
2023-04-10T19:20:50.332Z,100.00
2023-04-10T19:23:20.708Z,100.00
2023-04-10T19:25:53.234Z,100.00
2023-04-10T19:28:23.832Z,100.00
2023-04-10T19:30:52.004Z,100.00
2023-04-10T19:33:21.096Z,100.00
2023-04-10T19:35:49.082Z,100.00
2023-04-10T19:38:17.194Z,100.00
2023-04-10T19:40:45.655Z,100.00
2023-04-10T19:43:15.355Z,100.00
2023-04-10T19:45:43.689Z,100.00
2023-04-10T19:48:16.062Z,100.00
2023-04-10T19:50:44.303Z,100.00
2023-04-10T19:53:15.591Z,100.00
2023-04-10T19:55:45.961Z,100.00
2023-04-10T19:58:35.694Z,100.00
2023-04-10T20:01:04.624Z,100.00
2023-04-10T20:03:33.510Z,100.00
2023-04-10T20:06:03.475Z,100.00
2023-04-10T20:08:32.087Z,100.00
2023-04-10T20:11:00.478Z,100.00
2023-04-10T20:13:29.986Z,100.00
2023-04-10T20:15:58.777Z,100.00
2023-04-10T20:18:27.045Z,100.00
2023-04-10T20:20:56.546Z,100.00
2023-04-10T20:23:25.466Z,100.00
2023-04-10T20:25:54.146Z,100.00
2023-04-10T20:28:22.258Z,100.00
2023-04-10T20:30:52.028Z,100.00
2023-04-10T20:33:20.512Z,100.00
2023-04-10T20:35:49.052Z,100.00
2023-04-10T20:38:19.672Z,100.00
2023-04-10T20:40:48.038Z,100.00
2023-04-10T20:43:16.297Z,100.00
2023-04-10T20:45:44.489Z,100.00
2023-04-10T20:48:14.489Z,100.00
2023-04-10T20:50:44.644Z,100.00
2023-04-10T20:53:13.848Z,98.48
2023-04-10T20:55:42.132Z,98.09
2023-04-10T20:58:10.465Z,98.59
2023-04-10T21:00:39.948Z,98.52
2023-04-10T21:03:08.535Z,98.87
2023-04-10T21:05:42.711Z,94.91
2023-04-10T21:08:11.601Z,94.62
2023-04-10T21:10:44.309Z,95.05
2023-04-10T21:13:14.259Z,93.76
2023-04-10T21:15:42.635Z,93.25
2023-04-10T21:18:11.477Z,93.31
2023-04-10T21:20:39.900Z,93.66
2023-04-10T21:23:09.558Z,94.13
2023-04-10T21:25:38.005Z,95.59
2023-04-10T21:28:06.231Z,96.55
2023-04-10T21:30:35.952Z,97.65
2023-04-10T21:33:04.506Z,99.27
2023-04-10T21:35:32.731Z,100.00
2023-04-10T21:38:02.238Z,100.00
2023-04-10T21:40:34.581Z,100.00
2023-04-10T21:43:02.924Z,100.00
2023-04-10T21:45:31.308Z,100.00
2023-04-10T21:48:00.567Z,100.00
2023-04-10T21:50:28.805Z,100.00
2023-04-10T21:52:57.123Z,100.00
2023-04-10T21:55:25.218Z,100.00
2023-04-10T21:57:55.529Z,100.00
2023-04-10T22:00:23.587Z,100.00
2023-04-10T22:02:53.951Z,100.00
2023-04-10T22:05:22.739Z,100.00
2023-04-10T22:07:50.923Z,100.00
2023-04-10T22:10:19.090Z,100.00
2023-04-10T22:12:48.753Z,100.00
2023-04-10T22:15:20.037Z,100.00
2023-04-10T22:17:48.551Z,100.00
2023-04-10T22:20:17.210Z,100.00
2023-04-10T22:22:45.391Z,100.00
2023-04-10T22:25:13.561Z,100.00
2023-04-10T22:27:41.769Z,100.00
2023-04-10T22:30:11.092Z,100.00
2023-04-10T22:32:40.602Z,100.00
2023-04-10T22:35:09.687Z,100.00
2023-04-10T22:37:37.902Z,100.00
2023-04-10T22:40:07.156Z,100.00
2023-04-10T22:42:35.275Z,100.00
2023-04-10T22:45:04.220Z,100.00
2023-04-10T22:47:32.255Z,100.00
2023-04-10T22:50:01.698Z,100.00
2023-04-10T22:52:29.772Z,100.00
2023-04-10T22:54:58.837Z,100.00
2023-04-10T22:57:27.025Z,100.00
2023-04-10T22:59:55.440Z,100.00
2023-04-10T23:02:23.722Z,100.00
2023-04-10T23:04:51.983Z,100.00
2023-04-10T23:07:22.031Z,100.00
2023-04-10T23:09:50.177Z,100.00
2023-04-10T23:12:18.465Z,100.00
2023-04-10T23:14:46.634Z,100.00
2023-04-10T23:17:15.481Z,100.00
2023-04-10T23:19:43.662Z,100.00
2023-04-10T23:22:12.683Z,100.00
2023-04-10T23:24:42.276Z,100.00
2023-04-10T23:27:10.424Z,100.00
2023-04-10T23:29:38.519Z,100.00
2023-04-10T23:32:07.983Z,100.00
2023-04-10T23:34:36.055Z,100.00
2023-04-10T23:37:04.129Z,100.00
2023-04-10T23:39:32.249Z,100.00
2023-04-10T23:42:04.434Z,100.00
2023-04-10T23:44:32.598Z,100.00
2023-04-10T23:47:00.886Z,100.00
2023-04-10T23:49:29.684Z,100.00
2023-04-10T23:51:57.695Z,100.00
2023-04-10T23:54:25.870Z,100.00
2023-04-10T23:56:54.837Z,100.00
2023-04-10T23:59:24.366Z,100.00
